createdAt,value
2022-08-07T00:01:43.049Z,0.80
2022-08-07T00:03:51.657Z,0.60
2022-08-07T00:06:20.528Z,0.63
2022-08-07T00:09:00.029Z,0.70
2022-08-07T00:11:53.920Z,0.70
2022-08-07T00:14:22.339Z,0.68
2022-08-07T00:16:52.654Z,0.70
2022-08-07T00:19:21.730Z,0.68
2022-08-07T00:21:55.885Z,0.57
2022-08-07T00:24:24.825Z,0.90
2022-08-07T00:27:05.993Z,0.85
2022-08-07T00:29:33.890Z,0.70
2022-08-07T00:32:04.283Z,0.80
2022-08-07T00:34:33.138Z,0.60
2022-08-07T00:37:02.625Z,0.70
2022-08-07T00:39:32.058Z,0.60
2022-08-07T00:42:02.133Z,0.65
2022-08-07T00:44:33.084Z,0.63
2022-08-07T00:47:00.551Z,0.70
2022-08-07T00:50:19.096Z,0.77
2022-08-07T00:52:17.594Z,0.65
2022-08-07T00:54:47.109Z,0.80
2022-08-07T00:57:21.990Z,0.80
2022-08-07T00:59:49.602Z,0.80
2022-08-07T01:02:28.854Z,0.70
2022-08-07T01:04:58.241Z,0.70
2022-08-07T01:07:27.589Z,0.90
2022-08-07T01:10:06.226Z,0.75
2022-08-07T01:12:38.679Z,0.80
2022-08-07T01:15:05.805Z,0.80
2022-08-07T01:17:32.910Z,0.73
2022-08-07T01:19:59.960Z,0.80
2022-08-07T01:22:29.185Z,0.82
2022-08-07T01:24:56.734Z,0.82
2022-08-07T01:27:23.767Z,0.75
2022-08-07T01:29:59.269Z,0.80
2022-08-07T01:32:27.802Z,0.73
2022-08-07T01:34:55.875Z,0.82
2022-08-07T01:37:24.504Z,0.80
2022-08-07T01:39:52.403Z,0.88
2022-08-07T01:42:38.142Z,0.70
2022-08-07T01:45:15.705Z,0.77
2022-08-07T01:48:17.736Z,0.90
2022-08-07T01:50:32.191Z,0.70
2022-08-07T01:52:59.239Z,0.90
2022-08-07T01:55:26.647Z,0.80
2022-08-07T01:58:05.920Z,0.80
2022-08-07T02:00:48.840Z,0.80
2022-08-07T02:03:21.127Z,0.85
2022-08-07T02:05:59.331Z,0.88
2022-08-07T02:08:27.145Z,0.70
2022-08-07T02:10:58.063Z,0.70
2022-08-07T02:13:56.752Z,0.90
2022-08-07T02:16:12.331Z,0.82
2022-08-07T02:18:47.095Z,0.80
2022-08-07T02:21:16.314Z,0.70
2022-08-07T02:23:43.713Z,0.70
2022-08-07T02:26:32.632Z,0.80
2022-08-07T02:28:58.830Z,0.82
2022-08-07T02:31:29.112Z,0.80
2022-08-07T02:34:02.895Z,0.80
2022-08-07T02:36:32.836Z,0.80
2022-08-07T02:39:00.063Z,0.80
2022-08-07T02:41:33.667Z,0.80
2022-08-07T02:44:04.375Z,0.80
2022-08-07T02:46:32.407Z,0.68
2022-08-07T02:48:59.518Z,0.90
2022-08-07T02:51:42.602Z,0.80
2022-08-07T02:54:17.065Z,0.82
2022-08-07T02:56:44.136Z,0.80
2022-08-07T02:59:13.729Z,0.75
2022-08-07T03:01:40.811Z,0.88
2022-08-07T03:04:12.377Z,0.80
2022-08-07T03:06:40.167Z,0.70
2022-08-07T03:09:11.167Z,0.80
2022-08-07T03:11:39.215Z,0.77
2022-08-07T03:14:19.786Z,0.60
2022-08-07T03:16:49.716Z,0.80
2022-08-07T03:19:19.471Z,0.70
2022-08-07T03:21:50.413Z,0.70
2022-08-07T03:24:26.992Z,0.70
2022-08-07T03:26:58.871Z,0.68
2022-08-07T03:29:27.499Z,0.90
2022-08-07T03:31:54.816Z,0.77
2022-08-07T03:34:22.986Z,0.73
2022-08-07T03:36:54.508Z,0.73
2022-08-07T03:39:46.053Z,0.65
2022-08-07T03:42:08.615Z,0.70
2022-08-07T03:44:35.667Z,0.73
2022-08-07T03:47:13.990Z,0.60
2022-08-07T03:49:41.631Z,0.70
2022-08-07T03:52:22.300Z,0.70
2022-08-07T03:58:34.820Z,0.70
2022-08-07T04:00:10.517Z,0.60
2022-08-07T04:02:41.354Z,0.80
2022-08-07T04:05:08.515Z,0.70
2022-08-07T04:07:42.417Z,0.80
2022-08-07T04:10:15.314Z,0.70
2022-08-07T04:12:42.883Z,0.70
2022-08-07T04:15:10.066Z,0.60
2022-08-07T04:18:58.420Z,0.60
2022-08-07T04:20:26.016Z,0.70
2022-08-07T04:23:01.649Z,0.82
2022-08-07T04:25:29.560Z,0.60
2022-08-07T04:27:59.472Z,0.70
2022-08-07T04:30:43.437Z,0.77
2022-08-07T04:33:15.633Z,0.60
2022-08-07T04:35:42.988Z,0.60
2022-08-07T04:38:11.372Z,0.65
2022-08-07T04:40:51.410Z,0.60
2022-08-07T04:43:20.095Z,0.73
2022-08-07T04:46:01.606Z,0.60
2022-08-07T04:48:29.235Z,0.60
2022-08-07T04:50:57.843Z,0.70
2022-08-07T04:53:40.115Z,0.70
2022-08-07T04:58:11.442Z,0.60
2022-08-07T05:01:46.427Z,0.60
2022-08-07T05:04:17.920Z,0.70
2022-08-07T05:06:51.487Z,0.60
2022-08-07T05:09:28.088Z,0.73
2022-08-07T05:12:07.345Z,0.70
2022-08-07T05:14:55.794Z,0.70
2022-08-07T05:17:51.671Z,0.63
2022-08-07T05:20:09.979Z,0.70
2022-08-07T05:22:37.226Z,0.60
2022-08-07T05:25:08.710Z,0.70
2022-08-07T05:28:16.514Z,0.70
2022-08-07T05:30:32.677Z,0.68
2022-08-07T05:33:00.168Z,0.57
2022-08-07T05:35:33.207Z,0.65
2022-08-07T05:38:09.055Z,0.70
2022-08-07T05:40:37.057Z,0.70
2022-08-07T05:43:18.580Z,0.60
2022-08-07T05:45:47.840Z,0.75
2022-08-07T05:48:15.315Z,0.70
2022-08-07T05:50:43.650Z,0.60
2022-08-07T05:54:13.869Z,0.63
2022-08-07T05:56:02.429Z,0.60
2022-08-07T05:58:36.276Z,0.70
2022-08-07T06:01:05.117Z,0.70
2022-08-07T06:03:53.789Z,0.60
2022-08-07T06:06:22.438Z,0.70
2022-08-07T06:08:56.757Z,0.60
2022-08-07T06:11:25.311Z,0.68
2022-08-07T06:14:12.292Z,0.57
2022-08-07T06:16:40.062Z,0.65
2022-08-07T06:19:07.104Z,0.50
2022-08-07T06:22:14.715Z,0.60
2022-08-07T06:24:52.249Z,0.60
2022-08-07T06:27:08.446Z,0.60
2022-08-07T06:29:38.915Z,0.80
2022-08-07T06:32:06.198Z,0.65
2022-08-07T06:34:34.243Z,0.60
2022-08-07T06:37:02.865Z,0.70
2022-08-07T06:40:15.684Z,0.60
2022-08-07T06:42:19.535Z,0.70
2022-08-07T06:45:00.284Z,0.57
2022-08-07T06:47:27.948Z,0.70
2022-08-07T06:50:14.891Z,0.60
2022-08-07T06:52:45.923Z,0.60
2022-08-07T06:55:32.352Z,0.70
2022-08-07T06:58:09.621Z,0.63
2022-08-07T07:00:38.266Z,0.70
2022-08-07T07:03:08.873Z,0.60
2022-08-07T07:06:04.151Z,0.73
2022-08-07T07:08:26.709Z,0.60
2022-08-07T07:10:57.279Z,0.70
2022-08-07T07:13:41.517Z,0.70
2022-08-07T07:16:11.786Z,0.70
2022-08-07T07:18:47.807Z,0.70
2022-08-07T07:21:19.518Z,0.70
2022-08-07T07:24:10.386Z,0.70
2022-08-07T07:26:37.207Z,0.70
2022-08-07T07:29:40.315Z,0.80
2022-08-07T07:31:52.250Z,0.65
2022-08-07T07:34:20.938Z,0.60
2022-08-07T07:36:54.263Z,0.73
2022-08-07T07:39:21.503Z,0.70
2022-08-07T07:41:50.797Z,0.60
2022-08-07T07:44:36.233Z,0.68
2022-08-07T07:47:14.140Z,0.70
2022-08-07T07:50:34.647Z,0.70
2022-08-07T07:52:31.775Z,0.60
2022-08-07T07:54:58.981Z,0.70
2022-08-07T07:57:53.353Z,0.70
2022-08-07T08:00:21.181Z,0.70
2022-08-07T08:03:05.091Z,0.63
2022-08-07T08:05:42.730Z,0.70
2022-08-07T08:08:35.448Z,0.70
2022-08-07T08:11:03.844Z,0.60
2022-08-07T08:13:36.801Z,0.73
2022-08-07T08:16:18.114Z,0.80
2022-08-07T08:18:45.252Z,0.70
2022-08-07T08:21:59.170Z,0.75
2022-08-07T08:24:45.436Z,0.70
2022-08-07T08:27:14.426Z,0.80
2022-08-07T08:29:54.328Z,0.88
2022-08-07T08:32:25.176Z,0.70
2022-08-07T08:34:52.561Z,0.85
2022-08-07T08:37:59.725Z,0.80
2022-08-07T08:40:06.675Z,0.80
2022-08-07T08:42:40.354Z,0.70
2022-08-07T08:45:13.341Z,0.60
2022-08-07T08:47:47.428Z,0.80
2022-08-07T08:50:28.272Z,0.82
2022-08-07T08:53:02.545Z,0.75
2022-08-07T08:55:54.276Z,0.82
2022-08-07T08:58:24.703Z,0.80
2022-08-07T09:00:52.704Z,0.80
2022-08-07T09:03:20.296Z,0.80
2022-08-07T09:05:47.371Z,0.80
2022-08-07T09:08:17.932Z,0.80
2022-08-07T09:10:51.503Z,0.70
2022-08-07T09:13:18.589Z,0.80
2022-08-07T09:16:22.697Z,0.80
2022-08-07T09:18:32.676Z,0.80
2022-08-07T09:21:02.055Z,0.68
2022-08-07T09:24:29.139Z,0.73
2022-08-07T09:26:17.186Z,0.77
2022-08-07T09:30:05.170Z,0.73
2022-08-07T09:31:38.849Z,0.90
2022-08-07T09:34:06.018Z,0.80
2022-08-07T09:36:35.627Z,0.70
2022-08-07T09:39:11.439Z,0.95
2022-08-07T09:41:58.865Z,0.73
2022-08-07T09:44:52.090Z,0.85
2022-08-07T09:47:51.622Z,0.80
2022-08-07T09:50:19.094Z,0.80
2022-08-07T09:52:48.578Z,0.70
2022-08-07T09:56:02.796Z,0.80
2022-08-07T09:58:06.153Z,0.70
2022-08-07T10:00:33.309Z,0.80
2022-08-07T10:03:08.439Z,0.70
2022-08-07T10:05:59.566Z,0.70
2022-08-07T10:08:28.423Z,0.88
2022-08-07T10:11:59.944Z,0.80
2022-08-07T10:13:54.900Z,0.80
2022-08-07T10:16:23.057Z,0.90
2022-08-07T10:18:51.512Z,0.77
2022-08-07T10:22:14.559Z,0.90
2022-08-07T10:24:08.568Z,0.82
2022-08-07T10:26:37.113Z,0.80
2022-08-07T10:29:04.622Z,0.98
2022-08-07T10:31:38.630Z,0.70
2022-08-07T10:34:15.774Z,0.70
2022-08-07T10:36:45.465Z,0.73
2022-08-07T10:39:12.841Z,0.90
2022-08-07T10:41:51.261Z,0.90
2022-08-07T10:44:33.893Z,0.85
2022-08-07T10:47:11.853Z,0.80
2022-08-07T10:49:49.832Z,0.80
2022-08-07T10:52:18.227Z,0.90
2022-08-07T10:54:53.376Z,0.88
2022-08-07T10:57:34.763Z,0.90
2022-08-07T11:00:02.156Z,0.85
2022-08-07T11:02:34.186Z,0.80
2022-08-07T11:05:05.379Z,0.90
2022-08-07T11:08:00.297Z,1.05
2022-08-07T11:10:27.534Z,0.90
2022-08-07T11:13:01.618Z,0.98
2022-08-07T11:15:31.829Z,0.88
2022-08-07T11:18:03.622Z,0.80
2022-08-07T11:20:31.682Z,0.90
2022-08-07T11:22:58.754Z,0.80
2022-08-07T11:25:28.506Z,0.75
2022-08-07T11:28:01.646Z,1.00
2022-08-07T11:30:42.004Z,0.80
2022-08-07T11:33:14.361Z,0.85
2022-08-07T11:36:00.369Z,0.88
2022-08-07T11:40:56.369Z,1.00
2022-08-07T11:43:29.664Z,0.90
2022-08-07T11:46:11.275Z,0.85
2022-08-07T11:48:40.535Z,0.90
2022-08-07T11:51:09.110Z,0.90
2022-08-07T11:53:36.904Z,0.88
2022-08-07T11:56:09.481Z,0.90
2022-08-07T11:58:51.070Z,0.82
2022-08-07T12:01:20.106Z,0.88
2022-08-07T12:03:49.226Z,0.90
2022-08-07T12:06:39.919Z,0.82
2022-08-07T12:09:03.421Z,1.00
2022-08-07T12:11:35.109Z,0.77
2022-08-07T12:14:10.610Z,1.00
2022-08-07T12:16:38.251Z,0.90
2022-08-07T12:19:07.640Z,0.80
2022-08-07T12:22:37.179Z,0.80
2022-08-07T12:24:38.030Z,0.88
2022-08-07T12:27:16.368Z,0.98
2022-08-07T12:29:43.752Z,0.95
2022-08-07T12:32:13.833Z,0.85
2022-08-07T12:34:42.191Z,0.80
2022-08-07T12:37:23.568Z,0.82
2022-08-07T12:39:57.333Z,0.80
2022-08-07T12:42:27.880Z,0.90
2022-08-07T12:44:55.523Z,0.80
2022-08-07T12:47:26.977Z,0.90
2022-08-07T12:50:04.563Z,0.77
2022-08-07T12:52:34.066Z,0.80
2022-08-07T12:55:05.233Z,0.98
2022-08-07T13:00:32.845Z,0.70
2022-08-07T13:03:06.960Z,1.00
2022-08-07T13:06:04.082Z,0.77
2022-08-07T13:08:21.660Z,0.70
2022-08-07T13:10:51.814Z,0.80
2022-08-07T13:13:48.017Z,0.80
2022-08-07T13:16:06.498Z,0.90
2022-08-07T13:18:34.757Z,0.80
2022-08-07T13:21:02.751Z,0.82
2022-08-07T13:24:01.654Z,0.80
2022-08-07T13:26:18.388Z,0.70
2022-08-07T13:28:47.292Z,0.88
2022-08-07T13:31:14.341Z,0.85
2022-08-07T13:34:33.503Z,0.77
2022-08-07T13:36:29.293Z,0.90
2022-08-07T13:38:57.007Z,0.80
2022-08-07T13:41:24.695Z,0.80
2022-08-07T13:43:56.620Z,0.80
2022-08-07T13:46:28.876Z,0.70
2022-08-07T13:48:59.809Z,0.80
2022-08-07T13:52:04.795Z,0.90
2022-08-07T13:54:16.603Z,0.90
2022-08-07T13:56:51.783Z,0.82
2022-08-07T13:59:22.764Z,0.80
2022-08-07T14:01:51.088Z,0.70
2022-08-07T14:04:35.718Z,0.80
2022-08-07T14:07:04.408Z,0.90
2022-08-07T14:10:00.973Z,0.90
2022-08-07T14:12:20.862Z,0.90
2022-08-07T14:14:54.716Z,0.80
2022-08-07T14:18:12.915Z,0.90
2022-08-07T14:20:40.866Z,0.80
2022-08-07T14:22:56.038Z,0.90
2022-08-07T14:25:23.131Z,0.75
2022-08-07T14:28:12.143Z,0.93
2022-08-07T14:30:37.237Z,0.80
2022-08-07T14:33:07.799Z,0.80
2022-08-07T14:35:44.881Z,1.15
2022-08-07T14:38:26.080Z,0.90
2022-08-07T14:40:58.706Z,0.93
2022-08-07T14:43:55.447Z,0.80
2022-08-07T14:46:13.048Z,0.70
2022-08-07T14:48:44.562Z,0.90
2022-08-07T14:51:15.714Z,0.77
2022-08-07T14:54:08.745Z,0.82
2022-08-07T14:56:32.141Z,1.00
2022-08-07T14:58:59.260Z,0.80
2022-08-07T15:01:26.317Z,0.90
2022-08-07T15:04:09.330Z,0.80
2022-08-07T15:06:38.329Z,0.75
2022-08-07T15:11:54.323Z,0.90
2022-08-07T15:14:30.563Z,0.90
2022-08-07T15:17:00.668Z,0.80
2022-08-07T15:20:30.292Z,0.77
2022-08-07T15:22:31.079Z,0.75
2022-08-07T15:25:14.460Z,0.80
2022-08-07T15:30:32.805Z,0.80
2022-08-07T15:33:03.869Z,0.90
2022-08-07T15:36:01.843Z,0.80
2022-08-07T15:38:30.787Z,0.90
2022-08-07T15:41:23.748Z,0.73
2022-08-07T15:43:56.318Z,0.85
2022-08-07T15:46:31.714Z,0.80
2022-08-07T15:49:14.397Z,0.90
2022-08-07T15:54:24.946Z,0.80
2022-08-07T15:56:53.531Z,0.80
2022-08-07T15:59:39.295Z,0.73
2022-08-07T16:02:07.762Z,0.85
2022-08-07T16:04:35.650Z,0.82
2022-08-07T16:07:04.816Z,0.82
2022-08-07T16:09:41.156Z,0.85
2022-08-07T16:12:12.027Z,0.80
2022-08-07T16:14:39.459Z,0.90
2022-08-07T16:17:15.150Z,0.73
2022-08-07T16:19:59.298Z,0.70
2022-08-07T16:22:33.806Z,1.08
2022-08-07T16:25:04.763Z,1.00
2022-08-07T16:27:40.278Z,0.80
2022-08-07T16:30:30.946Z,0.90
2022-08-07T16:32:55.149Z,0.80
2022-08-07T16:35:59.394Z,0.85
2022-08-07T16:38:11.507Z,0.70
2022-08-07T16:40:57.366Z,1.00
2022-08-07T16:44:06.333Z,0.80
2022-08-07T16:47:04.638Z,0.80
2022-08-07T16:50:28.843Z,0.90
2022-08-07T16:52:02.050Z,1.00
2022-08-07T16:54:34.636Z,0.90
2022-08-07T16:57:03.263Z,0.90
2022-08-07T16:59:46.073Z,0.90
2022-08-07T17:02:14.247Z,0.90
2022-08-07T17:05:01.263Z,0.90
2022-08-07T17:07:55.071Z,0.90
2022-08-07T17:10:32.805Z,0.98
2022-08-07T17:13:00.994Z,0.90
2022-08-07T17:15:44.210Z,0.80
2022-08-07T17:18:16.342Z,0.90
2022-08-07T17:20:46.718Z,0.90
2022-08-07T17:23:13.873Z,0.88
2022-08-07T17:25:47.506Z,0.90
2022-08-07T17:28:19.530Z,1.00
2022-08-07T17:30:57.824Z,0.82
2022-08-07T17:34:08.892Z,0.80
2022-08-07T17:36:13.550Z,0.90
2022-08-07T17:38:50.198Z,0.90
2022-08-07T17:42:01.663Z,0.75
2022-08-07T17:44:06.614Z,0.90
2022-08-07T17:46:40.303Z,1.00
2022-08-07T17:49:09.019Z,1.10
2022-08-07T17:52:00.961Z,0.80
2022-08-07T17:54:29.422Z,0.90
2022-08-07T17:57:18.891Z,0.85
2022-08-07T17:59:46.558Z,0.95
2022-08-07T18:02:17.701Z,0.82
2022-08-07T18:04:50.536Z,0.80
2022-08-07T18:07:20.942Z,0.80
2022-08-07T18:10:06.078Z,1.00
2022-08-07T18:12:37.510Z,0.75
2022-08-07T18:15:06.065Z,0.95
2022-08-07T18:18:47.225Z,0.90
2022-08-07T18:21:06.523Z,0.85
2022-08-07T18:23:42.335Z,0.90
2022-08-07T18:26:01.007Z,0.82
2022-08-07T18:28:35.295Z,0.80
2022-08-07T18:31:03.286Z,0.80
2022-08-07T18:33:30.387Z,0.90
2022-08-07T18:35:57.530Z,0.80
2022-08-07T18:38:55.357Z,0.90
2022-08-07T18:41:17.229Z,0.90
2022-08-07T18:43:49.312Z,0.90
2022-08-07T18:46:21.948Z,1.00
2022-08-07T18:50:05.463Z,0.80
2022-08-07T18:52:34.251Z,0.90
2022-08-07T18:54:31.461Z,0.90
2022-08-07T18:57:29.883Z,0.90
2022-08-07T18:59:59.327Z,0.90
2022-08-07T19:02:36.647Z,0.90
2022-08-07T19:05:14.897Z,0.90
2022-08-07T19:07:52.040Z,0.88
2022-08-07T19:10:31.604Z,0.90
2022-08-07T19:13:09.880Z,0.80
2022-08-07T19:16:05.877Z,0.90
2022-08-07T19:18:34.040Z,0.85
2022-08-07T19:21:10.099Z,0.88
2022-08-07T19:23:59.339Z,1.10
2022-08-07T19:26:29.307Z,0.90
2022-08-07T19:30:57.312Z,0.90
2022-08-07T19:32:07.896Z,0.90
2022-08-07T19:34:36.252Z,0.90
2022-08-07T19:37:09.957Z,1.00
2022-08-07T19:39:57.949Z,1.10
2022-08-07T19:42:30.343Z,1.00
2022-08-07T19:44:58.846Z,1.00
2022-08-07T19:47:28.006Z,1.05
2022-08-07T19:50:41.250Z,1.10
2022-08-07T19:52:58.638Z,1.10
2022-08-07T19:55:26.435Z,1.17
2022-08-07T19:58:14.165Z,1.00
2022-08-07T20:00:55.365Z,1.00
2022-08-07T20:03:34.155Z,1.13
2022-08-07T20:06:06.064Z,1.23
2022-08-07T20:08:34.223Z,1.17
2022-08-07T20:11:03.648Z,1.17
2022-08-07T20:13:36.901Z,1.10
2022-08-07T20:16:22.386Z,1.10
2022-08-07T20:18:57.010Z,1.00
2022-08-07T20:21:25.135Z,1.30
2022-08-07T20:23:57.858Z,1.10
2022-08-07T20:26:32.147Z,1.10
2022-08-07T20:29:10.342Z,1.27
2022-08-07T20:31:39.145Z,1.30
2022-08-07T20:34:07.117Z,1.10
2022-08-07T20:36:34.199Z,1.08
2022-08-07T20:39:06.096Z,1.30
2022-08-07T20:41:48.331Z,1.30
2022-08-07T20:44:27.674Z,1.30
2022-08-07T20:47:05.923Z,1.30
2022-08-07T20:49:58.886Z,1.40
2022-08-07T20:52:24.558Z,1.52
2022-08-07T20:55:12.249Z,1.30
2022-08-07T20:57:39.368Z,1.38
2022-08-07T21:00:17.107Z,1.40
2022-08-07T21:02:59.860Z,1.30
2022-08-07T21:05:52.897Z,1.63
2022-08-07T21:08:19.878Z,1.67
2022-08-07T21:11:01.161Z,1.60
2022-08-07T21:13:57.189Z,1.50
2022-08-07T21:16:16.752Z,1.55
2022-08-07T21:18:50.355Z,1.35
2022-08-07T21:21:17.754Z,1.60
2022-08-07T21:23:50.070Z,1.50
2022-08-07T21:26:20.477Z,1.63
2022-08-07T21:28:50.892Z,1.60
2022-08-07T21:31:31.254Z,1.70
2022-08-07T21:34:05.310Z,1.75
2022-08-07T21:36:33.968Z,1.60
2022-08-07T21:39:01.076Z,1.73
2022-08-07T21:41:28.142Z,1.70
2022-08-07T21:44:05.542Z,1.60
2022-08-07T21:46:33.232Z,1.50
2022-08-07T21:49:00.641Z,1.70
2022-08-07T21:51:27.707Z,1.58
2022-08-07T21:53:59.363Z,1.50
2022-08-07T21:56:36.558Z,1.50
2022-08-07T21:59:07.604Z,1.50
2022-08-07T22:02:11.361Z,1.50
2022-08-07T22:04:21.723Z,1.70
2022-08-07T22:06:51.979Z,1.40
2022-08-07T22:09:25.370Z,1.35
2022-08-07T22:12:07.194Z,1.60
2022-08-07T22:14:36.260Z,1.60
2022-08-07T22:17:04.102Z,1.60
2022-08-07T22:19:31.320Z,1.63
2022-08-07T22:22:04.984Z,1.50
2022-08-07T22:24:45.106Z,1.42
2022-08-07T22:27:12.148Z,1.65
2022-08-07T22:29:49.489Z,1.35
2022-08-07T22:32:20.275Z,1.70
2022-08-07T22:34:52.896Z,1.40
2022-08-07T22:37:20.311Z,1.40
2022-08-07T22:39:52.858Z,1.35
2022-08-07T22:42:25.942Z,1.40
2022-08-07T22:44:58.279Z,1.20
2022-08-07T22:47:26.652Z,1.30
2022-08-07T22:49:55.106Z,1.33
2022-08-07T22:52:37.818Z,1.30
2022-08-07T22:55:17.423Z,1.30
2022-08-07T22:57:50.738Z,1.50
2022-08-07T23:00:17.807Z,1.35
2022-08-07T23:02:44.887Z,1.30
2022-08-07T23:06:09.606Z,1.30
2022-08-07T23:07:59.019Z,1.27
2022-08-07T23:10:37.403Z,1.20
2022-08-07T23:13:08.127Z,1.40
2022-08-07T23:16:07.350Z,1.40
2022-08-07T23:18:22.526Z,1.50
2022-08-07T23:20:53.792Z,1.25
2022-08-07T23:24:06.888Z,1.20
2022-08-07T23:26:09.992Z,1.20
2022-08-07T23:28:37.032Z,1.20
2022-08-07T23:31:13.734Z,1.20
2022-08-07T23:34:35.390Z,1.20
2022-08-07T23:36:32.554Z,1.30
2022-08-07T23:39:00.171Z,1.38
2022-08-07T23:41:33.700Z,1.30
2022-08-07T23:44:00.910Z,1.27
2022-08-07T23:46:27.958Z,1.10
2022-08-07T23:48:56.215Z,1.20
2022-08-07T23:53:02.036Z,1.20
2022-08-07T23:54:19.795Z,1.20
2022-08-07T23:57:00.164Z,1.20
